KGIF/GIF METAR and TAF weather

Enter ICAO airport designator
Station Type Date Time Source
KGIF METAR 2019/07/18 10:53 UTC NOAA

KGIF 181053Z AUTO 00000KT 10SM CLR 24/23 A3012 RMK AO2 SLP197 T02390228


Station Type Date Time Source
KGIF Decoded METAR 2019/07/18 10:53 UTC NOAA

WINTER HAVENS GILBERT AIRPORT , FL, United States (KGIF) 28-04N 81-45W 43M
Jul 18, 2019 - 06:53 AM EDT / 2019.07.18 1053 UTC
Wind: Calm:0
Visibility: 10 mile(s):0
Sky conditions: clear
Temperature: 75.0 F (23.9 C)
Dew Point: 73.0 F (22.8 C)
Relative Humidity: 93%
Pressure (altimeter): 30.12 in. Hg (1019 hPa)
ob: KGIF 181053Z AUTO 00000KT 10SM CLR 24/23 A3012 RMK AO2 SLP197 T02390228
cycle: 11

Station Type Date Time Source
KGIF TAF UTC NOAA

Error!

Example: see airport list